createdAt,value
2022-10-26T00:01:15.375Z,23.33
2022-10-26T00:03:44.972Z,23.80
2022-10-26T00:06:20.886Z,23.88
2022-10-26T00:08:49.097Z,24.30
2022-10-26T00:11:17.045Z,23.00
2022-10-26T00:13:45.768Z,23.73
2022-10-26T00:16:20.683Z,24.42
2022-10-26T00:18:48.797Z,23.95
2022-10-26T00:21:16.983Z,24.98
2022-10-26T00:23:44.434Z,23.40
2022-10-26T00:26:12.327Z,23.20
2022-10-26T00:28:39.739Z,23.50
2022-10-26T00:31:12.036Z,23.10
2022-10-26T00:33:39.681Z,24.13
2022-10-26T00:36:09.497Z,22.02
2022-10-26T00:38:37.828Z,23.20
2022-10-26T00:41:05.792Z,24.70
2022-10-26T00:43:38.706Z,24.00
2022-10-26T00:46:10.002Z,24.13
2022-10-26T00:48:45.946Z,23.65
2022-10-26T00:51:23.961Z,23.58
2022-10-26T00:53:52.970Z,25.30
2022-10-26T00:56:21.045Z,24.60
2022-10-26T00:58:48.921Z,25.45
2022-10-26T01:01:16.487Z,24.80
2022-10-26T01:03:45.094Z,25.48
2022-10-26T01:06:12.958Z,26.23
2022-10-26T01:08:41.858Z,25.52
2022-10-26T01:11:10.070Z,22.35
2022-10-26T01:13:38.145Z,22.45
2022-10-26T01:16:31.108Z,23.13
2022-10-26T01:19:22.444Z,22.50
2022-10-26T01:24:52.130Z,21.80
2022-10-26T01:27:28.498Z,20.98
2022-10-26T01:30:07.301Z,16.08
2022-10-26T01:32:55.622Z,20.05
2022-10-26T01:35:38.071Z,17.73
2022-10-26T01:38:17.838Z,19.55
2022-10-26T01:41:22.484Z,18.58
2022-10-26T01:44:01.653Z,17.75
2022-10-26T01:46:32.155Z,16.05
2022-10-26T01:49:04.265Z,17.27
2022-10-26T01:51:33.070Z,17.08
2022-10-26T01:54:00.471Z,16.17
2022-10-26T01:56:30.443Z,17.00
2022-10-26T01:59:12.482Z,16.85
2022-10-26T02:01:49.094Z,16.38
2022-10-26T02:04:36.860Z,15.55
2022-10-26T02:07:38.221Z,15.10
2022-10-26T02:12:54.126Z,15.25
2022-10-26T02:15:30.161Z,15.40
2022-10-26T02:18:03.838Z,15.05
2022-10-26T02:20:40.744Z,15.27
2022-10-26T02:23:09.902Z,16.10
2022-10-26T02:25:44.491Z,15.85
2022-10-26T02:28:16.206Z,15.98
2022-10-26T02:30:46.680Z,16.20
2022-10-26T02:33:15.432Z,15.75
2022-10-26T02:35:47.190Z,16.00
2022-10-26T02:38:17.970Z,16.60
2022-10-26T02:40:47.709Z,15.32
2022-10-26T02:43:22.189Z,14.68
2022-10-26T02:45:54.178Z,15.07
2022-10-26T02:48:22.927Z,15.30
2022-10-26T02:51:14.256Z,14.73
2022-10-26T02:56:28.507Z,14.55
2022-10-26T02:59:01.179Z,13.80
2022-10-26T03:01:29.545Z,14.23
2022-10-26T03:04:00.843Z,15.30
2022-10-26T03:06:28.426Z,14.70
2022-10-26T03:08:55.814Z,16.00
2022-10-26T03:11:23.256Z,15.27
2022-10-26T03:13:50.684Z,15.52
2022-10-26T03:16:18.074Z,15.02
2022-10-26T03:18:45.449Z,16.08
2022-10-26T03:21:12.906Z,15.05
2022-10-26T03:23:40.300Z,15.80
2022-10-26T03:26:07.982Z,15.38
2022-10-26T03:28:35.369Z,16.20
2022-10-26T03:31:02.835Z,16.55
2022-10-26T03:33:30.321Z,15.63
2022-10-26T03:35:58.009Z,15.15
2022-10-26T03:38:25.373Z,15.23
2022-10-26T03:40:52.873Z,15.50
2022-10-26T03:43:20.300Z,15.32
2022-10-26T03:45:47.717Z,14.55
2022-10-26T03:48:15.566Z,15.02
2022-10-26T03:50:42.961Z,15.68
2022-10-26T03:53:10.589Z,14.95
2022-10-26T03:55:38.151Z,15.65
2022-10-26T03:58:05.708Z,15.35
2022-10-26T04:00:33.094Z,15.73
2022-10-26T04:03:00.779Z,15.85
2022-10-26T04:05:29.560Z,16.20
2022-10-26T04:08:04.752Z,15.40
2022-10-26T04:10:32.618Z,15.48
2022-10-26T04:13:01.436Z,15.10
2022-10-26T04:15:29.708Z,16.20
2022-10-26T04:18:02.236Z,15.65
2022-10-26T04:20:31.193Z,17.58
2022-10-26T04:23:04.021Z,15.25
2022-10-26T04:25:33.629Z,16.85
2022-10-26T04:28:03.310Z,15.93
2022-10-26T04:30:31.899Z,17.85
2022-10-26T04:32:59.715Z,17.40
2022-10-26T04:35:27.766Z,18.25
2022-10-26T04:38:03.043Z,18.08
2022-10-26T04:40:32.023Z,17.88
2022-10-26T04:42:59.511Z,16.95
2022-10-26T04:45:31.168Z,17.85
2022-10-26T04:48:12.453Z,17.17
2022-10-26T04:50:41.227Z,17.50
2022-10-26T04:53:09.851Z,16.88
2022-10-26T04:55:37.342Z,16.05
2022-10-26T04:58:05.605Z,18.35
2022-10-26T05:00:33.854Z,18.50
2022-10-26T05:03:02.754Z,17.35
2022-10-26T05:05:35.572Z,17.25
2022-10-26T05:08:03.666Z,18.52
2022-10-26T05:10:31.254Z,17.33
2022-10-26T05:13:00.480Z,16.95
2022-10-26T05:15:28.962Z,17.90
2022-10-26T05:17:57.571Z,19.25
2022-10-26T05:20:31.045Z,17.55
2022-10-26T05:23:03.886Z,18.23
2022-10-26T05:25:34.212Z,17.05
2022-10-26T05:28:04.387Z,16.90
2022-10-26T05:30:32.517Z,16.70
2022-10-26T05:33:03.367Z,15.43
2022-10-26T05:35:32.303Z,16.88
2022-10-26T05:38:00.036Z,17.65
2022-10-26T05:40:27.855Z,18.52
2022-10-26T05:43:01.039Z,17.25
2022-10-26T05:45:29.183Z,16.98
2022-10-26T05:47:59.966Z,18.33
2022-10-26T05:50:30.396Z,17.40
2022-10-26T05:52:57.926Z,17.17
2022-10-26T05:55:25.835Z,17.73
2022-10-26T05:57:53.604Z,17.08
2022-10-26T06:00:27.269Z,18.83
2022-10-26T06:03:09.799Z,17.35
2022-10-26T06:05:51.524Z,18.42
2022-10-26T06:08:20.087Z,19.15
2022-10-26T06:10:48.821Z,17.98
2022-10-26T06:13:16.622Z,17.02
2022-10-26T06:16:19.029Z,16.85
2022-10-26T06:18:52.275Z,17.85
2022-10-26T06:21:44.423Z,17.23
2022-10-26T06:24:41.191Z,17.05
2022-10-26T06:27:45.299Z,17.55
2022-10-26T06:30:13.145Z,17.23
2022-10-26T06:32:44.930Z,18.48
2022-10-26T06:35:24.401Z,16.20
2022-10-26T06:37:54.353Z,18.88
2022-10-26T06:40:23.325Z,18.48
2022-10-26T06:42:51.279Z,17.85
2022-10-26T06:45:19.308Z,19.17
2022-10-26T06:47:52.223Z,18.20
2022-10-26T06:50:40.006Z,19.48
2022-10-26T06:53:21.816Z,17.35
2022-10-26T06:55:51.051Z,18.77
2022-10-26T06:58:20.880Z,17.13
2022-10-26T07:00:54.134Z,17.85
2022-10-26T07:03:21.594Z,19.25
2022-10-26T07:05:50.315Z,17.90
2022-10-26T07:08:18.381Z,18.60
2022-10-26T07:10:47.591Z,18.25
2022-10-26T07:13:15.156Z,19.85
2022-10-26T07:15:43.087Z,20.77
2022-10-26T07:18:10.741Z,20.38
2022-10-26T07:20:40.182Z,19.50
2022-10-26T07:23:11.222Z,20.15
2022-10-26T07:25:40.707Z,20.30
2022-10-26T07:28:10.704Z,19.83
2022-10-26T07:30:40.076Z,19.60
2022-10-26T07:33:10.603Z,18.70
2022-10-26T07:35:38.433Z,20.23
2022-10-26T07:38:06.361Z,22.60
2022-10-26T07:40:34.543Z,20.92
2022-10-26T07:43:02.112Z,21.90
2022-10-26T07:45:30.336Z,21.52
2022-10-26T07:47:58.205Z,20.77
2022-10-26T07:50:26.242Z,22.30
2022-10-26T07:52:54.659Z,22.83
2022-10-26T07:55:22.106Z,23.10
2022-10-26T07:57:52.561Z,22.52
2022-10-26T08:00:22.643Z,22.08
2022-10-26T08:02:50.205Z,23.98
2022-10-26T08:05:18.315Z,21.73
2022-10-26T08:07:46.127Z,22.20
2022-10-26T08:10:15.227Z,22.02
2022-10-26T08:12:46.946Z,23.05
2022-10-26T08:15:14.330Z,21.70
2022-10-26T08:17:41.753Z,23.23
2022-10-26T08:20:09.806Z,23.17
2022-10-26T08:22:37.232Z,22.90
2022-10-26T08:25:04.998Z,21.65
2022-10-26T08:27:32.473Z,22.05
2022-10-26T08:29:59.875Z,20.60
2022-10-26T08:32:27.245Z,21.95
2022-10-26T08:34:54.669Z,18.92
2022-10-26T08:37:22.980Z,21.05
2022-10-26T08:39:53.607Z,20.13
2022-10-26T08:42:34.316Z,22.02
2022-10-26T08:45:27.552Z,19.88
2022-10-26T08:48:02.016Z,20.90
2022-10-26T08:50:53.818Z,18.60
2022-10-26T08:53:39.218Z,17.42
2022-10-26T08:56:23.761Z,19.17
2022-10-26T08:58:59.375Z,18.45
2022-10-26T09:01:27.138Z,18.02
2022-10-26T09:03:57.089Z,18.30
2022-10-26T09:06:57.451Z,16.90
2022-10-26T09:09:37.351Z,17.23
2022-10-26T09:12:09.482Z,17.35
2022-10-26T09:15:10.519Z,16.83
2022-10-26T09:17:52.995Z,15.70
2022-10-26T09:20:50.972Z,17.77
2022-10-26T09:23:30.814Z,16.67
2022-10-26T09:26:01.278Z,17.25
2022-10-26T09:28:37.503Z,17.17
2022-10-26T09:31:05.570Z,16.08
2022-10-26T09:33:39.526Z,16.38
2022-10-26T09:36:15.909Z,15.60
2022-10-26T09:39:10.768Z,16.40
2022-10-26T09:42:05.532Z,16.83
2022-10-26T09:44:42.839Z,16.55
2022-10-26T09:47:26.839Z,17.95
2022-10-26T09:50:01.399Z,16.27
2022-10-26T09:52:28.856Z,14.75
2022-10-26T09:54:56.418Z,14.60
2022-10-26T09:57:24.879Z,14.35
2022-10-26T09:59:55.799Z,12.65
2022-10-26T10:02:38.480Z,12.07
2022-10-26T10:05:50.786Z,13.20
2022-10-26T10:08:23.543Z,11.90
2022-10-26T10:10:58.810Z,13.40
2022-10-26T10:13:29.858Z,11.93
2022-10-26T10:16:05.846Z,10.77
2022-10-26T10:18:34.250Z,11.13
2022-10-26T10:21:02.392Z,9.77
2022-10-26T10:23:35.929Z,10.52
2022-10-26T10:26:11.087Z,9.57
2022-10-26T10:28:40.703Z,10.00
2022-10-26T10:34:50.845Z,8.80
2022-10-26T10:37:42.292Z,8.35
2022-10-26T10:40:18.968Z,8.02
2022-10-26T10:42:48.093Z,7.72
2022-10-26T10:49:05.512Z,8.35
2022-10-26T10:51:39.883Z,7.28
2022-10-26T10:54:23.701Z,7.45
2022-10-26T10:56:55.850Z,8.30
2022-10-26T10:59:40.580Z,7.68
2022-10-26T11:02:43.324Z,7.55
2022-10-26T11:05:33.912Z,7.45
2022-10-26T11:08:15.978Z,7.50
2022-10-26T11:10:50.521Z,9.48
2022-10-26T11:13:24.217Z,9.20
2022-10-26T11:15:58.645Z,7.18
2022-10-26T11:18:28.701Z,6.45
2022-10-26T11:21:03.221Z,7.10
2022-10-26T11:23:50.227Z,7.15
2022-10-26T11:26:43.661Z,7.10
2022-10-26T11:29:48.567Z,7.88
2022-10-26T11:32:50.752Z,7.57
2022-10-26T11:35:27.478Z,6.88
2022-10-26T11:38:45.289Z,7.25
2022-10-26T11:41:35.232Z,7.55
2022-10-26T11:44:51.819Z,7.38
2022-10-26T11:47:28.304Z,6.82
2022-10-26T11:50:31.025Z,7.00
2022-10-26T11:53:11.961Z,6.38
2022-10-26T11:55:41.172Z,6.95
2022-10-26T11:58:11.986Z,6.40
2022-10-26T12:01:10.243Z,6.65
2022-10-26T12:03:45.738Z,6.32
2022-10-26T12:06:17.451Z,6.40
2022-10-26T12:08:56.329Z,6.05
2022-10-26T12:11:29.552Z,5.60
2022-10-26T12:17:05.571Z,5.25
2022-10-26T12:19:47.662Z,6.00
2022-10-26T12:22:21.924Z,5.57
2022-10-26T12:25:15.474Z,5.50
2022-10-26T12:27:43.150Z,6.18
2022-10-26T12:30:19.470Z,4.97
2022-10-26T12:32:48.819Z,5.63
2022-10-26T12:35:35.954Z,4.70
2022-10-26T12:38:21.728Z,5.72
2022-10-26T12:41:07.634Z,5.40
2022-10-26T12:43:39.098Z,6.68
2022-10-26T12:46:15.369Z,6.78
2022-10-26T12:48:53.996Z,6.35
2022-10-26T12:51:21.854Z,5.82
2022-10-26T12:54:25.301Z,5.68
2022-10-26T12:57:14.070Z,5.63
2022-10-26T13:00:11.055Z,5.97
2022-10-26T13:02:43.987Z,4.65
2022-10-26T13:05:16.978Z,5.22
2022-10-26T13:07:44.718Z,5.07
2022-10-26T13:10:12.178Z,4.93
2022-10-26T13:13:05.588Z,5.45
2022-10-26T13:15:53.517Z,5.88
2022-10-26T13:18:22.722Z,5.85
2022-10-26T13:21:13.602Z,6.78
2022-10-26T13:23:57.088Z,6.95
2022-10-26T13:26:27.619Z,6.93
2022-10-26T13:29:00.761Z,7.15
2022-10-26T13:31:33.322Z,6.97
2022-10-26T13:34:06.860Z,8.95
2022-10-26T13:36:39.295Z,33.28
2022-10-26T13:39:13.809Z,9.70
2022-10-26T13:41:45.558Z,8.48
2022-10-26T13:44:39.005Z,10.45
2022-10-26T13:47:17.997Z,9.00
2022-10-26T13:49:51.361Z,11.38
2022-10-26T13:52:27.188Z,9.80
2022-10-26T13:55:00.253Z,9.05
2022-10-26T13:57:40.520Z,7.45
2022-10-26T14:00:19.673Z,7.13
2022-10-26T14:02:47.449Z,8.02
2022-10-26T14:05:18.200Z,7.30
2022-10-26T14:07:50.372Z,8.73
2022-10-26T14:10:38.529Z,9.25
2022-10-26T14:13:13.218Z,10.77
2022-10-26T14:15:44.948Z,8.25
2022-10-26T14:18:23.127Z,10.45
2022-10-26T14:21:00.243Z,10.20
2022-10-26T14:23:29.130Z,10.93
2022-10-26T14:25:59.048Z,9.25
2022-10-26T14:28:29.714Z,10.85
2022-10-26T14:31:40.406Z,13.97
2022-10-26T14:34:10.450Z,11.80
2022-10-26T14:36:46.818Z,13.93
2022-10-26T14:39:24.849Z,11.73
2022-10-26T14:41:54.629Z,12.55
2022-10-26T14:44:24.681Z,11.90
2022-10-26T14:46:54.660Z,12.20
2022-10-26T14:49:27.579Z,12.00
2022-10-26T14:52:00.243Z,11.60
2022-10-26T14:54:30.304Z,12.05
2022-10-26T14:56:58.212Z,11.73
2022-10-26T14:59:25.711Z,10.77
2022-10-26T15:02:11.331Z,12.18
2022-10-26T15:04:41.490Z,12.50
2022-10-26T15:07:19.612Z,17.92
2022-10-26T15:09:51.802Z,12.13
2022-10-26T15:12:38.488Z,11.50
2022-10-26T15:17:56.809Z,9.93
2022-10-26T15:20:26.946Z,10.52
2022-10-26T15:23:04.138Z,11.68
2022-10-26T15:25:34.305Z,9.05
2022-10-26T15:28:20.964Z,9.17
2022-10-26T15:31:05.329Z,8.90
2022-10-26T15:33:34.467Z,11.25
2022-10-26T15:36:18.489Z,9.93
2022-10-26T15:38:48.344Z,15.27
2022-10-26T15:41:23.160Z,13.25
2022-10-26T15:43:52.693Z,9.13
2022-10-26T15:46:21.543Z,8.88
2022-10-26T15:49:00.556Z,8.02
2022-10-26T15:51:30.107Z,7.43
2022-10-26T15:53:58.826Z,7.88
2022-10-26T15:56:26.994Z,13.20
2022-10-26T15:58:57.075Z,15.25
2022-10-26T16:01:31.626Z,12.45
2022-10-26T16:03:59.190Z,11.10
2022-10-26T16:06:35.461Z,7.82
2022-10-26T16:09:06.620Z,7.90
2022-10-26T16:14:03.788Z,7.50
2022-10-26T16:16:32.212Z,7.77
2022-10-26T16:19:18.802Z,8.90
2022-10-26T16:21:50.742Z,13.75
2022-10-26T16:24:18.249Z,13.27
2022-10-26T16:26:46.072Z,12.35
2022-10-26T16:29:13.891Z,12.95
2022-10-26T16:31:41.359Z,11.88
2022-10-26T16:34:09.033Z,11.32
2022-10-26T16:36:38.258Z,11.20
2022-10-26T16:39:06.843Z,10.48
2022-10-26T16:41:34.827Z,11.13
2022-10-26T16:44:03.027Z,10.10
2022-10-26T16:46:31.002Z,9.65
2022-10-26T16:49:00.039Z,8.70
2022-10-26T16:51:28.454Z,9.13
2022-10-26T16:53:57.327Z,9.20
2022-10-26T16:56:28.454Z,9.50
2022-10-26T17:01:24.325Z,9.38
2022-10-26T17:03:53.053Z,11.02
2022-10-26T17:06:20.975Z,10.55
2022-10-26T17:08:48.393Z,12.43
2022-10-26T17:11:21.273Z,14.43
2022-10-26T17:13:53.058Z,15.90
2022-10-26T17:16:22.297Z,17.30
2022-10-26T17:18:49.965Z,18.33
2022-10-26T17:21:19.907Z,19.02
2022-10-26T17:23:47.409Z,21.48
2022-10-26T17:26:15.222Z,18.40
2022-10-26T17:28:43.223Z,13.90
2022-10-26T17:31:16.204Z,13.73
2022-10-26T17:33:45.106Z,13.80
2022-10-26T17:36:14.296Z,12.52
2022-10-26T17:38:43.578Z,12.35
2022-10-26T17:41:17.038Z,14.07
2022-10-26T17:43:47.836Z,13.68
2022-10-26T17:46:18.468Z,15.82
2022-10-26T17:48:47.767Z,15.73
2022-10-26T17:51:21.690Z,15.40
2022-10-26T17:53:51.303Z,15.30
2022-10-26T17:56:32.623Z,13.30
2022-10-26T17:59:03.394Z,13.27
2022-10-26T18:01:32.265Z,19.05
2022-10-26T18:04:01.336Z,25.80
2022-10-26T18:06:33.258Z,28.48
2022-10-26T18:09:01.132Z,18.33
2022-10-26T18:11:29.378Z,16.45
2022-10-26T18:13:59.789Z,21.42
2022-10-26T18:16:28.732Z,27.60
2022-10-26T18:19:02.294Z,26.25
2022-10-26T18:21:35.116Z,30.67
2022-10-26T18:24:03.234Z,30.00
2022-10-26T18:26:31.715Z,26.02
2022-10-26T18:29:01.773Z,18.67
2022-10-26T18:31:32.543Z,15.90
2022-10-26T18:34:03.832Z,13.68
2022-10-26T18:36:31.859Z,15.05
2022-10-26T18:38:59.694Z,13.20
2022-10-26T18:41:27.963Z,12.95
2022-10-26T18:43:59.831Z,13.93
2022-10-26T18:46:29.998Z,13.27
2022-10-26T18:48:59.380Z,13.83
2022-10-26T18:51:31.193Z,14.52
2022-10-26T18:53:59.621Z,18.25
2022-10-26T18:56:27.448Z,18.40
2022-10-26T18:58:59.664Z,15.65
2022-10-26T19:01:35.613Z,13.35
2022-10-26T19:04:08.271Z,14.65
2022-10-26T19:06:38.437Z,15.13
2022-10-26T19:09:07.973Z,15.13
2022-10-26T19:11:35.715Z,20.67
2022-10-26T19:14:03.411Z,15.55
2022-10-26T19:16:45.314Z,15.35
2022-10-26T19:19:13.561Z,15.57
2022-10-26T19:21:41.140Z,15.15
2022-10-26T19:24:13.398Z,15.07
2022-10-26T19:26:43.425Z,15.65
2022-10-26T19:29:17.392Z,14.77
2022-10-26T19:31:46.187Z,15.32
2022-10-26T19:34:15.722Z,17.33
2022-10-26T19:36:47.401Z,17.88
2022-10-26T19:39:16.689Z,15.20
2022-10-26T19:41:45.013Z,16.05
2022-10-26T19:44:15.826Z,15.35
2022-10-26T19:46:44.150Z,16.48
2022-10-26T19:49:13.061Z,15.65
2022-10-26T19:51:40.817Z,16.15
2022-10-26T19:54:08.680Z,16.00
2022-10-26T19:56:37.515Z,14.98
2022-10-26T19:59:05.923Z,15.93
2022-10-26T20:01:34.004Z,14.70
2022-10-26T20:04:02.867Z,14.63
2022-10-26T20:06:31.155Z,15.18
2022-10-26T20:09:00.073Z,14.18
2022-10-26T20:11:28.088Z,15.13
2022-10-26T20:13:56.585Z,14.27
2022-10-26T20:16:24.590Z,14.25
2022-10-26T20:18:52.017Z,13.95
2022-10-26T20:21:19.628Z,14.25
2022-10-26T20:23:47.118Z,14.23
2022-10-26T20:26:18.368Z,15.20
2022-10-26T20:28:49.350Z,14.52
2022-10-26T20:31:16.779Z,15.02
2022-10-26T20:33:44.251Z,14.13
2022-10-26T20:36:11.705Z,13.85
2022-10-26T20:38:40.050Z,13.60
2022-10-26T20:41:12.212Z,15.05
2022-10-26T20:43:40.970Z,13.85
2022-10-26T20:46:22.841Z,13.93
2022-10-26T20:48:51.620Z,13.88
2022-10-26T20:51:47.542Z,17.23
2022-10-26T20:54:45.279Z,13.57
2022-10-26T20:57:19.378Z,14.93
2022-10-26T20:59:52.887Z,16.77
2022-10-26T21:02:22.379Z,15.50
2022-10-26T21:04:49.899Z,15.32
2022-10-26T21:07:17.385Z,14.95
2022-10-26T21:09:44.805Z,17.42
2022-10-26T21:12:12.191Z,15.70
2022-10-26T21:14:41.082Z,15.52
2022-10-26T21:17:09.114Z,15.63
2022-10-26T21:19:37.154Z,14.57
2022-10-26T21:22:04.525Z,15.10
2022-10-26T21:24:31.969Z,14.82
2022-10-26T21:26:59.409Z,15.60
2022-10-26T21:29:26.799Z,16.02
2022-10-26T21:31:54.198Z,15.65
2022-10-26T21:34:21.578Z,14.43
2022-10-26T21:36:49.133Z,14.68
2022-10-26T21:39:16.551Z,14.00
2022-10-26T21:41:44.089Z,15.63
2022-10-26T21:44:24.671Z,14.85
2022-10-26T21:46:58.888Z,16.52
2022-10-26T21:49:26.350Z,14.73
2022-10-26T21:51:53.853Z,16.58
2022-10-26T21:54:21.345Z,22.98
2022-10-26T21:56:48.761Z,15.05
2022-10-26T21:59:16.159Z,14.80
2022-10-26T22:01:43.573Z,14.70
2022-10-26T22:04:11.668Z,14.25
2022-10-26T22:06:39.050Z,13.95
2022-10-26T22:09:06.684Z,14.77
2022-10-26T22:11:34.077Z,15.05
2022-10-26T22:14:01.697Z,14.23
2022-10-26T22:16:31.298Z,14.48
2022-10-26T22:19:04.054Z,15.88
2022-10-26T22:21:35.839Z,16.30
2022-10-26T22:24:03.630Z,16.08
2022-10-26T22:26:33.588Z,14.98
2022-10-26T22:29:01.191Z,16.17
2022-10-26T22:34:13.365Z,15.50
2022-10-26T22:36:40.919Z,15.15
2022-10-26T22:39:08.325Z,16.48
2022-10-26T22:41:35.795Z,15.38
2022-10-26T22:44:03.244Z,16.20
2022-10-26T22:46:30.763Z,15.20
2022-10-26T22:49:00.579Z,14.35
2022-10-26T22:51:31.242Z,15.65
2022-10-26T22:54:01.889Z,15.68
2022-10-26T22:56:31.343Z,15.65
2022-10-26T22:58:58.834Z,15.85
2022-10-26T23:01:31.428Z,15.15
2022-10-26T23:03:59.850Z,16.08
2022-10-26T23:06:29.687Z,14.68
2022-10-26T23:08:57.435Z,15.13
2022-10-26T23:11:27.103Z,16.02
2022-10-26T23:13:58.039Z,14.98
2022-10-26T23:16:26.097Z,14.95
2022-10-26T23:18:53.910Z,15.68
2022-10-26T23:21:24.084Z,15.30
2022-10-26T23:23:51.644Z,15.60
2022-10-26T23:26:21.702Z,15.90
2022-10-26T23:28:49.606Z,15.40
2022-10-26T23:31:20.084Z,14.35
2022-10-26T23:33:49.540Z,15.73
2022-10-26T23:36:17.102Z,16.70
2022-10-26T23:38:44.508Z,14.77
2022-10-26T23:41:13.098Z,15.63
2022-10-26T23:43:41.221Z,15.45
2022-10-26T23:46:08.731Z,14.77
2022-10-26T23:48:36.972Z,15.52
2022-10-26T23:51:04.568Z,16.35
2022-10-26T23:53:32.064Z,16.15
2022-10-26T23:55:59.510Z,15.65
2022-10-26T23:58:26.946Z,17.13
